SCXR weather

Las Bandurrias Airport
Lago Ranco, Los Ríos Region, Chile

Public forecast

Using degrees Celsius for public forecast. Weather courtesy of forecast.io.

Closest aviation weather report (METAR) to Las Bandurrias Airport

Closest report is Cañal Bajo Carlos - Hott Siebert Airport, 42.0 nm (77.8 km) WSW. Retrieved 2020/04/08 21:00 UTC (53 minutes ago):

SCJO 082100Z 00000KT CAVOK 26/08 Q1011

Closest aviation forecast (TAF) to Las Bandurrias Airport

Forecast is more than 6 hours old.

Closest forecast is Cañal Bajo Carlos - Hott Siebert Airport, 42.0 nm (77.8 km) WSW. Retrieved 2020/04/08 12:33 UTC (9 hours ago):

TAF SCJO 081029Z 0812/0824 VRB02KT 0800 FG VV001 TN01/0812Z TX22/0819Z TEMPO 0812/0813 5000 BR BKN007 BECMG 0813/0815 9999 NSW FEW010 BECMG 0816/0818 CAVOK